sensor_id;sensor_type;location;lat;lon;timestamp;P1;durP1;ratioP1;P2;durP2;ratioP2
77701;SDS011;66868;42.708;23.404;2023-12-04T00:00:41;7.73;;;6.33;;
77701;SDS011;66868;42.708;23.404;2023-12-04T00:03:06;10.93;;;7.07;;
77701;SDS011;66868;42.708;23.404;2023-12-04T00:05:32;7.57;;;6.27;;
77701;SDS011;66868;42.708;23.404;2023-12-04T00:07:57;10.83;;;6.43;;
77701;SDS011;66868;42.708;23.404;2023-12-04T00:10:22;7.70;;;5.87;;
77701;SDS011;66868;42.708;23.404;2023-12-04T00:12:49;9.27;;;7.60;;
77701;SDS011;66868;42.708;23.404;2023-12-04T00:15:14;8.10;;;7.17;;
77701;SDS011;66868;42.708;23.404;2023-12-04T00:17:41;9.73;;;6.37;;
77701;SDS011;66868;42.708;23.404;2023-12-04T00:20:07;11.50;;;6.20;;
77701;SDS011;66868;42.708;23.404;2023-12-04T00:22:34;8.60;;;5.77;;
77701;SDS011;66868;42.708;23.404;2023-12-04T00:25:01;8.87;;;6.37;;
77701;SDS011;66868;42.708;23.404;2023-12-04T00:27:28;9.03;;;5.93;;
77701;SDS011;66868;42.708;23.404;2023-12-04T00:29:54;8.67;;;6.90;;
77701;SDS011;66868;42.708;23.404;2023-12-04T00:32:20;8.83;;;6.97;;
77701;SDS011;66868;42.708;23.404;2023-12-04T00:34:45;8.33;;;6.07;;
77701;SDS011;66868;42.708;23.404;2023-12-04T00:37:10;7.63;;;6.53;;
77701;SDS011;66868;42.708;23.404;2023-12-04T00:39:36;9.17;;;6.23;;
77701;SDS011;66868;42.708;23.404;2023-12-04T00:42:02;7.83;;;6.70;;
77701;SDS011;66868;42.708;23.404;2023-12-04T00:44:28;11.03;;;5.87;;
77701;SDS011;66868;42.708;23.404;2023-12-04T00:46:53;11.60;;;7.00;;
77701;SDS011;66868;42.708;23.404;2023-12-04T00:49:19;15.73;;;7.60;;
77701;SDS011;66868;42.708;23.404;2023-12-04T00:51:44;9.73;;;7.30;;
77701;SDS011;66868;42.708;23.404;2023-12-04T00:54:10;7.30;;;5.87;;
77701;SDS011;66868;42.708;23.404;2023-12-04T00:56:37;11.63;;;6.73;;
77701;SDS011;66868;42.708;23.404;2023-12-04T00:59:04;12.00;;;7.97;;
77701;SDS011;66868;42.708;23.404;2023-12-04T01:01:31;7.53;;;6.03;;
77701;SDS011;66868;42.708;23.404;2023-12-04T01:03:57;13.33;;;6.97;;
77701;SDS011;66868;42.708;23.404;2023-12-04T01:06:23;14.83;;;7.27;;
77701;SDS011;66868;42.708;23.404;2023-12-04T01:08:49;6.07;;;5.03;;
77701;SDS011;66868;42.708;23.404;2023-12-04T01:11:17;8.77;;;5.57;;
77701;SDS011;66868;42.708;23.404;2023-12-04T01:13:44;11.03;;;6.73;;
77701;SDS011;66868;42.708;23.404;2023-12-04T01:16:10;10.10;;;7.30;;
77701;SDS011;66868;42.708;23.404;2023-12-04T01:18:35;9.67;;;6.77;;
77701;SDS011;66868;42.708;23.404;2023-12-04T01:21:01;9.07;;;6.90;;
77701;SDS011;66868;42.708;23.404;2023-12-04T01:23:27;9.70;;;7.30;;
77701;SDS011;66868;42.708;23.404;2023-12-04T01:25:53;10.30;;;6.57;;
77701;SDS011;66868;42.708;23.404;2023-12-04T01:28:18;8.93;;;5.80;;
77701;SDS011;66868;42.708;23.404;2023-12-04T01:30:44;11.77;;;7.37;;
77701;SDS011;66868;42.708;23.404;2023-12-04T01:33:09;12.50;;;6.87;;
77701;SDS011;66868;42.708;23.404;2023-12-04T01:35:35;9.70;;;6.57;;
77701;SDS011;66868;42.708;23.404;2023-12-04T01:38:01;10.57;;;7.33;;
77701;SDS011;66868;42.708;23.404;2023-12-04T01:40:26;8.73;;;6.63;;
77701;SDS011;66868;42.708;23.404;2023-12-04T01:42:52;7.27;;;6.43;;
77701;SDS011;66868;42.708;23.404;2023-12-04T01:45:17;9.70;;;7.67;;
77701;SDS011;66868;42.708;23.404;2023-12-04T01:47:44;9.87;;;6.27;;
77701;SDS011;66868;42.708;23.404;2023-12-04T01:50:10;9.77;;;6.97;;
77701;SDS011;66868;42.708;23.404;2023-12-04T01:52:37;9.63;;;6.53;;
77701;SDS011;66868;42.708;23.404;2023-12-04T01:55:04;6.73;;;6.03;;
77701;SDS011;66868;42.708;23.404;2023-12-04T01:57:32;9.13;;;6.67;;
77701;SDS011;66868;42.708;23.404;2023-12-04T01:59:57;9.87;;;7.27;;
77701;SDS011;66868;42.708;23.404;2023-12-04T02:02:24;7.73;;;5.53;;
77701;SDS011;66868;42.708;23.404;2023-12-04T02:04:50;11.93;;;7.20;;
77701;SDS011;66868;42.708;23.404;2023-12-04T02:07:16;10.80;;;7.37;;
77701;SDS011;66868;42.708;23.404;2023-12-04T02:09:42;9.07;;;6.73;;
77701;SDS011;66868;42.708;23.404;2023-12-04T02:12:07;12.80;;;7.83;;
77701;SDS011;66868;42.708;23.404;2023-12-04T02:14:33;7.13;;;6.00;;
77701;SDS011;66868;42.708;23.404;2023-12-04T02:16:58;9.07;;;6.83;;
77701;SDS011;66868;42.708;23.404;2023-12-04T02:19:27;8.03;;;6.27;;
77701;SDS011;66868;42.708;23.404;2023-12-04T02:21:53;9.60;;;7.03;;
77701;SDS011;66868;42.708;23.404;2023-12-04T02:24:19;13.13;;;7.03;;
77701;SDS011;66868;42.708;23.404;2023-12-04T02:26:49;11.10;;;7.00;;
77701;SDS011;66868;42.708;23.404;2023-12-04T02:29:41;9.63;;;6.77;;
77701;SDS011;66868;42.708;23.404;2023-12-04T02:32:11;9.70;;;6.90;;
77701;SDS011;66868;42.708;23.404;2023-12-04T02:34:42;10.93;;;6.73;;
77701;SDS011;66868;42.708;23.404;2023-12-04T02:37:09;9.17;;;6.70;;
77701;SDS011;66868;42.708;23.404;2023-12-04T02:39:36;9.63;;;6.40;;
77701;SDS011;66868;42.708;23.404;2023-12-04T02:42:02;8.43;;;5.70;;
77701;SDS011;66868;42.708;23.404;2023-12-04T02:44:28;8.80;;;6.47;;
77701;SDS011;66868;42.708;23.404;2023-12-04T02:46:54;9.33;;;7.53;;
77701;SDS011;66868;42.708;23.404;2023-12-04T02:49:19;6.30;;;4.93;;
77701;SDS011;66868;42.708;23.404;2023-12-04T02:51:45;9.30;;;6.10;;
77701;SDS011;66868;42.708;23.404;2023-12-04T02:54:10;7.07;;;5.87;;
77701;SDS011;66868;42.708;23.404;2023-12-04T02:56:35;8.07;;;5.50;;
77701;SDS011;66868;42.708;23.404;2023-12-04T02:59:01;9.60;;;6.37;;
77701;SDS011;66868;42.708;23.404;2023-12-04T03:01:26;10.23;;;6.53;;
77701;SDS011;66868;42.708;23.404;2023-12-04T03:03:52;8.40;;;5.77;;
77701;SDS011;66868;42.708;23.404;2023-12-04T03:06:17;6.77;;;5.63;;
77701;SDS011;66868;42.708;23.404;2023-12-04T03:08:43;8.70;;;5.67;;
77701;SDS011;66868;42.708;23.404;2023-12-04T03:11:08;5.77;;;5.17;;
77701;SDS011;66868;42.708;23.404;2023-12-04T03:13:34;6.90;;;5.80;;
77701;SDS011;66868;42.708;23.404;2023-12-04T03:15:59;6.70;;;5.30;;
77701;SDS011;66868;42.708;23.404;2023-12-04T03:18:25;7.33;;;5.67;;
77701;SDS011;66868;42.708;23.404;2023-12-04T03:20:51;6.67;;;5.50;;
77701;SDS011;66868;42.708;23.404;2023-12-04T03:23:17;9.57;;;5.50;;
77701;SDS011;66868;42.708;23.404;2023-12-04T03:25:42;7.77;;;5.07;;
77701;SDS011;66868;42.708;23.404;2023-12-04T03:28:08;9.77;;;5.50;;
77701;SDS011;66868;42.708;23.404;2023-12-04T03:30:33;9.73;;;6.00;;
77701;SDS011;66868;42.708;23.404;2023-12-04T03:32:59;6.63;;;4.87;;
77701;SDS011;66868;42.708;23.404;2023-12-04T03:35:24;8.50;;;5.17;;
77701;SDS011;66868;42.708;23.404;2023-12-04T03:37:51;5.17;;;4.70;;
77701;SDS011;66868;42.708;23.404;2023-12-04T03:40:17;13.33;;;6.83;;
77701;SDS011;66868;42.708;23.404;2023-12-04T03:42:43;6.00;;;5.30;;
77701;SDS011;66868;42.708;23.404;2023-12-04T03:45:08;6.37;;;5.77;;
77701;SDS011;66868;42.708;23.404;2023-12-04T03:47:34;7.03;;;5.17;;
77701;SDS011;66868;42.708;23.404;2023-12-04T03:50:00;8.73;;;5.60;;
77701;SDS011;66868;42.708;23.404;2023-12-04T03:52:25;6.47;;;5.83;;
77701;SDS011;66868;42.708;23.404;2023-12-04T03:54:50;9.10;;;5.50;;
77701;SDS011;66868;42.708;23.404;2023-12-04T03:57:16;8.00;;;6.27;;
77701;SDS011;66868;42.708;23.404;2023-12-04T03:59:43;7.33;;;5.30;;
77701;SDS011;66868;42.708;23.404;2023-12-04T04:02:09;8.93;;;5.43;;
77701;SDS011;66868;42.708;23.404;2023-12-04T04:04:35;8.47;;;6.47;;
77701;SDS011;66868;42.708;23.404;2023-12-04T04:07:00;6.00;;;5.00;;
77701;SDS011;66868;42.708;23.404;2023-12-04T04:09:26;7.70;;;5.17;;
77701;SDS011;66868;42.708;23.404;2023-12-04T04:11:51;5.70;;;5.07;;
77701;SDS011;66868;42.708;23.404;2023-12-04T04:14:17;4.47;;;4.07;;
77701;SDS011;66868;42.708;23.404;2023-12-04T04:16:42;7.90;;;5.60;;
77701;SDS011;66868;42.708;23.404;2023-12-04T04:19:07;7.37;;;4.87;;
77701;SDS011;66868;42.708;23.404;2023-12-04T04:21:33;9.20;;;6.07;;
77701;SDS011;66868;42.708;23.404;2023-12-04T04:23:59;8.63;;;4.63;;
77701;SDS011;66868;42.708;23.404;2023-12-04T04:26:24;5.27;;;4.63;;
77701;SDS011;66868;42.708;23.404;2023-12-04T04:28:50;6.00;;;5.50;;
77701;SDS011;66868;42.708;23.404;2023-12-04T04:31:15;7.40;;;6.07;;
77701;SDS011;66868;42.708;23.404;2023-12-04T04:33:41;5.40;;;4.80;;
77701;SDS011;66868;42.708;23.404;2023-12-04T04:36:08;11.37;;;6.03;;
77701;SDS011;66868;42.708;23.404;2023-12-04T04:38:34;6.37;;;5.67;;
77701;SDS011;66868;42.708;23.404;2023-12-04T04:41:00;6.73;;;5.00;;
77701;SDS011;66868;42.708;23.404;2023-12-04T04:43:25;8.60;;;6.07;;
77701;SDS011;66868;42.708;23.404;2023-12-04T04:45:51;4.17;;;3.77;;
77701;SDS011;66868;42.708;23.404;2023-12-04T04:48:16;8.43;;;5.73;;
77701;SDS011;66868;42.708;23.404;2023-12-04T04:50:42;10.07;;;5.20;;
77701;SDS011;66868;42.708;23.404;2023-12-04T04:53:07;7.53;;;5.80;;
77701;SDS011;66868;42.708;23.404;2023-12-04T04:55:32;7.43;;;5.50;;
77701;SDS011;66868;42.708;23.404;2023-12-04T04:57:58;6.20;;;5.17;;
77701;SDS011;66868;42.708;23.404;2023-12-04T05:00:23;6.30;;;5.47;;
77701;SDS011;66868;42.708;23.404;2023-12-04T05:02:50;8.10;;;6.67;;
77701;SDS011;66868;42.708;23.404;2023-12-04T05:05:15;5.37;;;4.87;;
77701;SDS011;66868;42.708;23.404;2023-12-04T05:07:41;7.63;;;6.07;;
77701;SDS011;66868;42.708;23.404;2023-12-04T05:10:06;8.63;;;5.63;;
77701;SDS011;66868;42.708;23.404;2023-12-04T05:12:32;5.87;;;5.17;;
77701;SDS011;66868;42.708;23.404;2023-12-04T05:14:57;8.60;;;6.93;;
77701;SDS011;66868;42.708;23.404;2023-12-04T05:17:23;6.83;;;5.70;;
77701;SDS011;66868;42.708;23.404;2023-12-04T05:19:48;8.27;;;6.43;;
77701;SDS011;66868;42.708;23.404;2023-12-04T05:22:14;4.33;;;3.97;;
77701;SDS011;66868;42.708;23.404;2023-12-04T05:24:39;8.63;;;6.10;;
77701;SDS011;66868;42.708;23.404;2023-12-04T05:27:05;6.83;;;6.10;;
77701;SDS011;66868;42.708;23.404;2023-12-04T05:29:30;10.43;;;5.70;;
77701;SDS011;66868;42.708;23.404;2023-12-04T05:31:56;8.07;;;5.50;;
77701;SDS011;66868;42.708;23.404;2023-12-04T05:34:22;6.17;;;5.30;;
77701;SDS011;66868;42.708;23.404;2023-12-04T05:36:48;10.37;;;5.97;;
77701;SDS011;66868;42.708;23.404;2023-12-04T05:39:13;6.30;;;5.57;;
77701;SDS011;66868;42.708;23.404;2023-12-04T05:41:39;9.83;;;5.87;;
77701;SDS011;66868;42.708;23.404;2023-12-04T05:44:04;7.93;;;5.03;;
77701;SDS011;66868;42.708;23.404;2023-12-04T05:46:30;7.67;;;4.70;;
77701;SDS011;66868;42.708;23.404;2023-12-04T05:48:55;8.67;;;5.10;;
77701;SDS011;66868;42.708;23.404;2023-12-04T05:51:21;7.47;;;6.00;;
77701;SDS011;66868;42.708;23.404;2023-12-04T05:53:47;16.23;;;5.60;;
77701;SDS011;66868;42.708;23.404;2023-12-04T05:56:12;6.13;;;5.53;;
77701;SDS011;66868;42.708;23.404;2023-12-04T05:58:38;7.53;;;5.70;;
77701;SDS011;66868;42.708;23.404;2023-12-04T06:01:03;7.73;;;5.67;;
77701;SDS011;66868;42.708;23.404;2023-12-04T06:03:31;6.93;;;6.00;;
77701;SDS011;66868;42.708;23.404;2023-12-04T06:05:57;5.60;;;5.10;;
77701;SDS011;66868;42.708;23.404;2023-12-04T06:08:22;10.70;;;5.67;;
77701;SDS011;66868;42.708;23.404;2023-12-04T06:10:48;8.67;;;6.10;;
77701;SDS011;66868;42.708;23.404;2023-12-04T06:13:13;6.03;;;5.37;;
77701;SDS011;66868;42.708;23.404;2023-12-04T06:15:39;13.50;;;7.33;;
77701;SDS011;66868;42.708;23.404;2023-12-04T06:18:04;7.83;;;5.87;;
77701;SDS011;66868;42.708;23.404;2023-12-04T06:20:30;11.63;;;6.53;;
77701;SDS011;66868;42.708;23.404;2023-12-04T06:22:55;9.30;;;5.80;;
77701;SDS011;66868;42.708;23.404;2023-12-04T06:25:21;10.43;;;7.10;;
77701;SDS011;66868;42.708;23.404;2023-12-04T06:27:47;7.40;;;5.60;;
77701;SDS011;66868;42.708;23.404;2023-12-04T06:30:13;15.17;;;6.17;;
77701;SDS011;66868;42.708;23.404;2023-12-04T06:32:45;6.47;;;5.83;;
77701;SDS011;66868;42.708;23.404;2023-12-04T06:35:11;7.27;;;4.90;;
77701;SDS011;66868;42.708;23.404;2023-12-04T06:37:38;7.73;;;5.67;;
77701;SDS011;66868;42.708;23.404;2023-12-04T06:40:05;16.37;;;5.17;;
77701;SDS011;66868;42.708;23.404;2023-12-04T06:42:34;4.60;;;4.07;;
77701;SDS011;66868;42.708;23.404;2023-12-04T06:45:00;14.47;;;7.23;;
77701;SDS011;66868;42.708;23.404;2023-12-04T06:47:30;12.00;;;6.73;;
77701;SDS011;66868;42.708;23.404;2023-12-04T06:49:56;8.73;;;6.00;;
77701;SDS011;66868;42.708;23.404;2023-12-04T06:52:22;6.73;;;5.80;;
77701;SDS011;66868;42.708;23.404;2023-12-04T06:54:47;7.27;;;6.37;;
77701;SDS011;66868;42.708;23.404;2023-12-04T06:57:13;9.33;;;6.57;;
77701;SDS011;66868;42.708;23.404;2023-12-04T06:59:41;12.03;;;6.70;;
77701;SDS011;66868;42.708;23.404;2023-12-04T07:02:07;13.10;;;6.60;;
77701;SDS011;66868;42.708;23.404;2023-12-04T07:04:32;8.70;;;7.47;;
77701;SDS011;66868;42.708;23.404;2023-12-04T07:06:57;6.53;;;5.63;;
77701;SDS011;66868;42.708;23.404;2023-12-04T07:09:26;13.80;;;7.07;;
77701;SDS011;66868;42.708;23.404;2023-12-04T07:11:52;8.87;;;6.87;;
77701;SDS011;66868;42.708;23.404;2023-12-04T07:14:18;9.97;;;7.33;;
77701;SDS011;66868;42.708;23.404;2023-12-04T07:16:46;17.13;;;7.80;;
77701;SDS011;66868;42.708;23.404;2023-12-04T07:19:14;10.70;;;6.93;;
77701;SDS011;66868;42.708;23.404;2023-12-04T07:21:41;9.13;;;6.23;;
77701;SDS011;66868;42.708;23.404;2023-12-04T07:24:07;9.63;;;5.87;;
77701;SDS011;66868;42.708;23.404;2023-12-04T07:26:33;10.47;;;7.10;;
77701;SDS011;66868;42.708;23.404;2023-12-04T07:29:00;13.07;;;7.10;;
77701;SDS011;66868;42.708;23.404;2023-12-04T07:31:26;9.20;;;5.50;;
77701;SDS011;66868;42.708;23.404;2023-12-04T07:33:54;10.13;;;6.23;;
77701;SDS011;66868;42.708;23.404;2023-12-04T07:36:20;10.50;;;6.80;;
77701;SDS011;66868;42.708;23.404;2023-12-04T07:38:45;8.97;;;5.97;;
77701;SDS011;66868;42.708;23.404;2023-12-04T07:41:11;7.93;;;5.87;;
77701;SDS011;66868;42.708;23.404;2023-12-04T07:43:36;6.93;;;5.27;;
77701;SDS011;66868;42.708;23.404;2023-12-04T07:46:02;7.37;;;4.93;;
77701;SDS011;66868;42.708;23.404;2023-12-04T07:48:28;8.63;;;6.03;;
77701;SDS011;66868;42.708;23.404;2023-12-04T07:50:56;7.60;;;5.63;;
77701;SDS011;66868;42.708;23.404;2023-12-04T07:53:22;13.07;;;5.73;;
77701;SDS011;66868;42.708;23.404;2023-12-04T07:55:48;13.07;;;6.67;;
77701;SDS011;66868;42.708;23.404;2023-12-04T07:58:16;7.97;;;5.90;;
77701;SDS011;66868;42.708;23.404;2023-12-04T08:00:42;8.77;;;6.00;;
77701;SDS011;66868;42.708;23.404;2023-12-04T08:03:09;11.50;;;6.73;;
77701;SDS011;66868;42.708;23.404;2023-12-04T08:05:34;11.50;;;5.67;;
77701;SDS011;66868;42.708;23.404;2023-12-04T08:07:59;6.03;;;5.33;;
77701;SDS011;66868;42.708;23.404;2023-12-04T08:10:25;12.43;;;6.90;;
77701;SDS011;66868;42.708;23.404;2023-12-04T08:12:50;7.30;;;5.83;;
77701;SDS011;66868;42.708;23.404;2023-12-04T08:15:16;7.90;;;6.20;;
77701;SDS011;66868;42.708;23.404;2023-12-04T08:17:41;9.27;;;7.23;;
77701;SDS011;66868;42.708;23.404;2023-12-04T08:20:07;9.37;;;7.37;;
77701;SDS011;66868;42.708;23.404;2023-12-04T08:22:38;9.77;;;6.27;;
77701;SDS011;66868;42.708;23.404;2023-12-04T08:25:05;8.07;;;5.97;;
77701;SDS011;66868;42.708;23.404;2023-12-04T08:27:32;8.67;;;5.60;;
77701;SDS011;66868;42.708;23.404;2023-12-04T08:29:57;7.67;;;5.80;;
77701;SDS011;66868;42.708;23.404;2023-12-04T08:32:23;6.23;;;5.63;;
77701;SDS011;66868;42.708;23.404;2023-12-04T08:34:51;6.03;;;4.70;;
77701;SDS011;66868;42.708;23.404;2023-12-04T08:37:17;10.80;;;5.17;;
77701;SDS011;66868;42.708;23.404;2023-12-04T08:39:44;6.30;;;5.70;;
77701;SDS011;66868;42.708;23.404;2023-12-04T08:42:09;7.47;;;5.53;;
77701;SDS011;66868;42.708;23.404;2023-12-04T08:44:36;12.67;;;5.73;;
77701;SDS011;66868;42.708;23.404;2023-12-04T08:47:04;8.67;;;6.70;;
77701;SDS011;66868;42.708;23.404;2023-12-04T08:49:33;8.60;;;5.53;;
77701;SDS011;66868;42.708;23.404;2023-12-04T08:51:59;7.87;;;6.00;;
77701;SDS011;66868;42.708;23.404;2023-12-04T08:54:24;8.43;;;6.10;;
77701;SDS011;66868;42.708;23.404;2023-12-04T08:56:50;10.47;;;6.13;;
77701;SDS011;66868;42.708;23.404;2023-12-04T08:59:15;10.03;;;5.50;;
77701;SDS011;66868;42.708;23.404;2023-12-04T09:01:42;7.10;;;5.50;;
77701;SDS011;66868;42.708;23.404;2023-12-04T09:04:11;11.60;;;8.77;;
77701;SDS011;66868;42.708;23.404;2023-12-04T09:06:37;6.70;;;5.40;;
77701;SDS011;66868;42.708;23.404;2023-12-04T09:09:10;4.77;;;4.37;;
77701;SDS011;66868;42.708;23.404;2023-12-04T09:11:40;7.30;;;5.57;;
77701;SDS011;66868;42.708;23.404;2023-12-04T09:14:06;5.00;;;4.57;;
77701;SDS011;66868;42.708;23.404;2023-12-04T09:16:32;11.13;;;5.40;;
77701;SDS011;66868;42.708;23.404;2023-12-04T09:18:57;10.97;;;6.43;;
77701;SDS011;66868;42.708;23.404;2023-12-04T09:21:23;7.23;;;5.40;;
77701;SDS011;66868;42.708;23.404;2023-12-04T09:23:48;6.30;;;5.70;;
77701;SDS011;66868;42.708;23.404;2023-12-04T09:26:15;6.90;;;5.60;;
77701;SDS011;66868;42.708;23.404;2023-12-04T09:28:42;9.90;;;6.07;;
77701;SDS011;66868;42.708;23.404;2023-12-04T09:31:08;9.37;;;6.10;;
77701;SDS011;66868;42.708;23.404;2023-12-04T09:33:34;6.50;;;5.80;;
77701;SDS011;66868;42.708;23.404;2023-12-04T09:36:00;9.87;;;6.43;;
77701;SDS011;66868;42.708;23.404;2023-12-04T09:38:26;15.33;;;7.53;;
77701;SDS011;66868;42.708;23.404;2023-12-04T09:40:51;13.67;;;6.43;;
77701;SDS011;66868;42.708;23.404;2023-12-04T09:43:17;10.80;;;6.67;;
77701;SDS011;66868;42.708;23.404;2023-12-04T09:45:44;8.43;;;6.20;;
77701;SDS011;66868;42.708;23.404;2023-12-04T09:48:09;11.67;;;7.53;;
77701;SDS011;66868;42.708;23.404;2023-12-04T09:50:36;14.67;;;7.93;;
77701;SDS011;66868;42.708;23.404;2023-12-04T09:53:02;11.67;;;7.67;;
77701;SDS011;66868;42.708;23.404;2023-12-04T09:55:29;9.17;;;6.27;;
77701;SDS011;66868;42.708;23.404;2023-12-04T09:57:54;10.03;;;6.80;;
77701;SDS011;66868;42.708;23.404;2023-12-04T10:00:21;15.23;;;7.07;;
77701;SDS011;66868;42.708;23.404;2023-12-04T10:02:48;9.63;;;6.13;;
77701;SDS011;66868;42.708;23.404;2023-12-04T10:05:15;9.60;;;6.57;;
77701;SDS011;66868;42.708;23.404;2023-12-04T10:07:40;6.83;;;5.77;;
77701;SDS011;66868;42.708;23.404;2023-12-04T10:10:06;5.77;;;5.17;;
77701;SDS011;66868;42.708;23.404;2023-12-04T10:12:33;7.30;;;5.87;;
77701;SDS011;66868;42.708;23.404;2023-12-04T10:15:05;8.17;;;6.23;;
77701;SDS011;66868;42.708;23.404;2023-12-04T10:17:33;11.33;;;6.13;;
77701;SDS011;66868;42.708;23.404;2023-12-04T10:20:08;10.33;;;7.10;;
77701;SDS011;66868;42.708;23.404;2023-12-04T10:22:51;7.37;;;6.50;;
77701;SDS011;66868;42.708;23.404;2023-12-04T10:25:17;6.77;;;6.03;;
77701;SDS011;66868;42.708;23.404;2023-12-04T10:27:44;10.07;;;6.27;;
77701;SDS011;66868;42.708;23.404;2023-12-04T10:30:10;8.53;;;5.90;;
77701;SDS011;66868;42.708;23.404;2023-12-04T10:32:46;11.37;;;7.27;;
77701;SDS011;66868;42.708;23.404;2023-12-04T10:35:12;7.57;;;6.37;;
77701;SDS011;66868;42.708;23.404;2023-12-04T10:37:38;9.43;;;6.80;;
77701;SDS011;66868;42.708;23.404;2023-12-04T10:40:04;9.17;;;6.43;;
77701;SDS011;66868;42.708;23.404;2023-12-04T10:42:33;9.53;;;6.33;;
77701;SDS011;66868;42.708;23.404;2023-12-04T10:44:59;8.77;;;6.17;;
77701;SDS011;66868;42.708;23.404;2023-12-04T10:47:26;13.00;;;6.60;;
77701;SDS011;66868;42.708;23.404;2023-12-04T10:49:53;12.13;;;7.80;;
77701;SDS011;66868;42.708;23.404;2023-12-04T10:52:20;12.33;;;6.83;;
77701;SDS011;66868;42.708;23.404;2023-12-04T10:54:49;8.23;;;5.77;;
77701;SDS011;66868;42.708;23.404;2023-12-04T10:57:22;8.13;;;6.00;;
77701;SDS011;66868;42.708;23.404;2023-12-04T10:59:57;8.30;;;6.53;;
77701;SDS011;66868;42.708;23.404;2023-12-04T11:02:25;9.47;;;6.60;;
77701;SDS011;66868;42.708;23.404;2023-12-04T11:04:55;9.53;;;6.73;;
77701;SDS011;66868;42.708;23.404;2023-12-04T11:07:49;12.50;;;7.60;;
77701;SDS011;66868;42.708;23.404;2023-12-04T11:10:19;10.43;;;7.20;;
77701;SDS011;66868;42.708;23.404;2023-12-04T11:12:48;15.07;;;8.77;;
77701;SDS011;66868;42.708;23.404;2023-12-04T11:15:17;11.50;;;8.33;;
77701;SDS011;66868;42.708;23.404;2023-12-04T11:17:46;13.23;;;7.97;;
77701;SDS011;66868;42.708;23.404;2023-12-04T11:20:19;9.57;;;6.93;;
77701;SDS011;66868;42.708;23.404;2023-12-04T11:22:49;12.03;;;8.40;;
77701;SDS011;66868;42.708;23.404;2023-12-04T11:25:16;9.50;;;7.70;;
77701;SDS011;66868;42.708;23.404;2023-12-04T11:27:42;13.07;;;8.47;;
77701;SDS011;66868;42.708;23.404;2023-12-04T11:30:08;14.07;;;8.23;;
77701;SDS011;66868;42.708;23.404;2023-12-04T11:32:46;10.37;;;7.13;;
77701;SDS011;66868;42.708;23.404;2023-12-04T11:35:16;15.87;;;8.27;;
77701;SDS011;66868;42.708;23.404;2023-12-04T11:37:43;13.27;;;7.43;;
77701;SDS011;66868;42.708;23.404;2023-12-04T11:40:12;20.77;;;7.80;;
77701;SDS011;66868;42.708;23.404;2023-12-04T11:42:40;11.38;;;7.30;;
77701;SDS011;66868;42.708;23.404;2023-12-04T11:45:06;10.48;;;7.45;;
77701;SDS011;66868;42.708;23.404;2023-12-04T11:50:19;13.25;;;8.07;;
77701;SDS011;66868;42.708;23.404;2023-12-04T11:52:45;14.38;;;8.75;;
77701;SDS011;66868;42.708;23.404;2023-12-04T11:55:11;14.15;;;8.32;;
77701;SDS011;66868;42.708;23.404;2023-12-04T11:57:37;22.15;;;11.10;;
77701;SDS011;66868;42.708;23.404;2023-12-04T12:02:34;18.17;;;10.02;;
77701;SDS011;66868;42.708;23.404;2023-12-04T12:04:59;18.83;;;9.75;;
77701;SDS011;66868;42.708;23.404;2023-12-04T12:07:25;16.05;;;9.18;;
77701;SDS011;66868;42.708;23.404;2023-12-04T12:09:51;12.25;;;8.23;;
77701;SDS011;66868;42.708;23.404;2023-12-04T12:12:17;12.93;;;8.48;;
77701;SDS011;66868;42.708;23.404;2023-12-04T12:14:42;14.93;;;8.95;;
77701;SDS011;66868;42.708;23.404;2023-12-04T12:17:08;23.02;;;11.05;;
77701;SDS011;66868;42.708;23.404;2023-12-04T12:19:33;15.50;;;8.38;;
77701;SDS011;66868;42.708;23.404;2023-12-04T12:21:59;17.77;;;8.93;;
77701;SDS011;66868;42.708;23.404;2023-12-04T12:24:25;15.45;;;9.88;;
77701;SDS011;66868;42.708;23.404;2023-12-04T12:26:51;20.83;;;9.15;;
77701;SDS011;66868;42.708;23.404;2023-12-04T12:29:17;13.73;;;9.40;;
77701;SDS011;66868;42.708;23.404;2023-12-04T12:31:42;31.10;;;9.77;;
77701;SDS011;66868;42.708;23.404;2023-12-04T12:34:08;16.42;;;9.20;;
77701;SDS011;66868;42.708;23.404;2023-12-04T12:36:33;14.20;;;8.55;;
77701;SDS011;66868;42.708;23.404;2023-12-04T12:39:00;16.27;;;8.70;;
77701;SDS011;66868;42.708;23.404;2023-12-04T12:41:28;18.73;;;10.02;;
77701;SDS011;66868;42.708;23.404;2023-12-04T12:43:54;14.45;;;9.32;;
77701;SDS011;66868;42.708;23.404;2023-12-04T12:46:22;15.00;;;7.68;;
77701;SDS011;66868;42.708;23.404;2023-12-04T12:48:47;12.85;;;8.18;;
77701;SDS011;66868;42.708;23.404;2023-12-04T12:51:13;12.82;;;7.85;;
77701;SDS011;66868;42.708;23.404;2023-12-04T12:53:39;16.92;;;10.82;;
77701;SDS011;66868;42.708;23.404;2023-12-04T12:56:04;20.00;;;10.90;;
77701;SDS011;66868;42.708;23.404;2023-12-04T12:58:31;13.30;;;8.35;;
77701;SDS011;66868;42.708;23.404;2023-12-04T13:00:56;13.52;;;8.63;;
77701;SDS011;66868;42.708;23.404;2023-12-04T13:03:22;10.70;;;7.68;;
77701;SDS011;66868;42.708;23.404;2023-12-04T13:05:47;12.90;;;8.02;;
77701;SDS011;66868;42.708;23.404;2023-12-04T13:08:13;11.90;;;8.48;;
77701;SDS011;66868;42.708;23.404;2023-12-04T13:10:40;11.85;;;8.27;;
77701;SDS011;66868;42.708;23.404;2023-12-04T13:13:15;13.98;;;7.53;;
77701;SDS011;66868;42.708;23.404;2023-12-04T13:15:41;13.55;;;8.88;;
77701;SDS011;66868;42.708;23.404;2023-12-04T13:18:08;16.83;;;9.45;;
77701;SDS011;66868;42.708;23.404;2023-12-04T13:20:34;13.68;;;9.00;;
77701;SDS011;66868;42.708;23.404;2023-12-04T13:22:59;13.60;;;9.48;;
77701;SDS011;66868;42.708;23.404;2023-12-04T13:25:25;10.98;;;7.80;;
77701;SDS011;66868;42.708;23.404;2023-12-04T13:27:51;18.05;;;7.95;;
77701;SDS011;66868;42.708;23.404;2023-12-04T13:30:19;11.25;;;7.32;;
77701;SDS011;66868;42.708;23.404;2023-12-04T13:32:45;9.85;;;6.65;;
77701;SDS011;66868;42.708;23.404;2023-12-04T13:35:11;9.95;;;7.68;;
77701;SDS011;66868;42.708;23.404;2023-12-04T13:37:36;11.52;;;8.98;;
77701;SDS011;66868;42.708;23.404;2023-12-04T13:40:04;9.55;;;7.30;;
77701;SDS011;66868;42.708;23.404;2023-12-04T13:42:33;7.95;;;5.72;;
77701;SDS011;66868;42.708;23.404;2023-12-04T13:45:17;6.15;;;5.53;;
77701;SDS011;66868;42.708;23.404;2023-12-04T13:47:46;4.90;;;4.50;;
77701;SDS011;66868;42.708;23.404;2023-12-04T13:50:15;5.78;;;5.13;;
77701;SDS011;66868;42.708;23.404;2023-12-04T13:52:42;6.53;;;4.63;;
77701;SDS011;66868;42.708;23.404;2023-12-04T13:55:08;4.90;;;4.50;;
77701;SDS011;66868;42.708;23.404;2023-12-04T13:58:00;4.95;;;4.55;;
77701;SDS011;66868;42.708;23.404;2023-12-04T14:00:29;7.57;;;4.93;;
77701;SDS011;66868;42.708;23.404;2023-12-04T14:02:54;7.68;;;5.60;;
77701;SDS011;66868;42.708;23.404;2023-12-04T14:05:29;10.45;;;6.30;;
77701;SDS011;66868;42.708;23.404;2023-12-04T14:07:55;8.13;;;7.03;;
77701;SDS011;66868;42.708;23.404;2023-12-04T14:10:24;10.80;;;7.07;;
77701;SDS011;66868;42.708;23.404;2023-12-04T14:12:51;9.82;;;6.53;;
77701;SDS011;66868;42.708;23.404;2023-12-04T14:15:16;7.60;;;6.90;;
77701;SDS011;66868;42.708;23.404;2023-12-04T14:17:42;27.73;;;11.77;;
77701;SDS011;66868;42.708;23.404;2023-12-04T14:20:08;19.00;;;9.88;;
77701;SDS011;66868;42.708;23.404;2023-12-04T14:22:42;16.40;;;9.80;;
77701;SDS011;66868;42.708;23.404;2023-12-04T14:25:08;27.25;;;13.73;;
77701;SDS011;66868;42.708;23.404;2023-12-04T14:27:34;26.00;;;12.68;;
77701;SDS011;66868;42.708;23.404;2023-12-04T14:30:00;15.63;;;9.68;;